sensor_id;sensor_type;location;lat;lon;timestamp;temperature;humidity
28177;DHT22;15461;41.652;9.378;2024-03-08T00:01:10;6.90;99.90
28177;DHT22;15461;41.652;9.378;2024-03-08T00:03:36;6.90;99.90
28177;DHT22;15461;41.652;9.378;2024-03-08T00:06:02;6.90;99.90
28177;DHT22;15461;41.652;9.378;2024-03-08T00:08:28;6.90;99.90
28177;DHT22;15461;41.652;9.378;2024-03-08T00:10:54;6.90;99.90
28177;DHT22;15461;41.652;9.378;2024-03-08T00:13:19;6.90;99.90
28177;DHT22;15461;41.652;9.378;2024-03-08T00:15:45;6.80;99.90
28177;DHT22;15461;41.652;9.378;2024-03-08T00:18:12;6.80;99.90
28177;DHT22;15461;41.652;9.378;2024-03-08T00:20:38;6.80;99.90
28177;DHT22;15461;41.652;9.378;2024-03-08T00:23:04;6.80;99.90
28177;DHT22;15461;41.652;9.378;2024-03-08T00:25:30;6.80;99.90
28177;DHT22;15461;41.652;9.378;2024-03-08T00:27:56;6.80;99.90
28177;DHT22;15461;41.652;9.378;2024-03-08T00:30:22;6.80;99.90
28177;DHT22;15461;41.652;9.378;2024-03-08T00:32:49;6.80;99.90
28177;DHT22;15461;41.652;9.378;2024-03-08T00:35:15;6.80;99.90
28177;DHT22;15461;41.652;9.378;2024-03-08T00:37:41;6.80;99.90
28177;DHT22;15461;41.652;9.378;2024-03-08T00:40:12;6.70;99.90
28177;DHT22;15461;41.652;9.378;2024-03-08T00:42:38;6.70;99.90
28177;DHT22;15461;41.652;9.378;2024-03-08T00:45:05;6.80;99.90
28177;DHT22;15461;41.652;9.378;2024-03-08T00:47:31;6.70;99.90
28177;DHT22;15461;41.652;9.378;2024-03-08T00:49:57;6.70;99.90
28177;DHT22;15461;41.652;9.378;2024-03-08T00:52:23;6.80;99.90
28177;DHT22;15461;41.652;9.378;2024-03-08T00:54:52;6.70;99.90
28177;DHT22;15461;41.652;9.378;2024-03-08T00:57:18;6.70;99.90
28177;DHT22;15461;41.652;9.378;2024-03-08T00:59:44;6.70;99.90
28177;DHT22;15461;41.652;9.378;2024-03-08T01:02:10;6.60;99.90
28177;DHT22;15461;41.652;9.378;2024-03-08T01:04:36;6.60;99.90
28177;DHT22;15461;41.652;9.378;2024-03-08T01:07:02;6.60;99.90
28177;DHT22;15461;41.652;9.378;2024-03-08T01:09:28;6.60;99.90
28177;DHT22;15461;41.652;9.378;2024-03-08T01:11:54;6.60;99.90
28177;DHT22;15461;41.652;9.378;2024-03-08T01:14:21;6.60;99.90
28177;DHT22;15461;41.652;9.378;2024-03-08T01:16:56;6.70;99.90
28177;DHT22;15461;41.652;9.378;2024-03-08T01:19:22;6.70;99.90
28177;DHT22;15461;41.652;9.378;2024-03-08T01:21:49;6.70;99.90
28177;DHT22;15461;41.652;9.378;2024-03-08T01:24:15;6.70;99.90
28177;DHT22;15461;41.652;9.378;2024-03-08T01:26:40;6.80;99.90
28177;DHT22;15461;41.652;9.378;2024-03-08T01:29:06;6.70;99.90
28177;DHT22;15461;41.652;9.378;2024-03-08T01:31:33;6.80;99.90
28177;DHT22;15461;41.652;9.378;2024-03-08T01:33:59;6.80;99.90
28177;DHT22;15461;41.652;9.378;2024-03-08T01:36:25;6.80;99.90
28177;DHT22;15461;41.652;9.378;2024-03-08T01:38:52;6.80;99.90
28177;DHT22;15461;41.652;9.378;2024-03-08T01:41:18;6.80;99.90
28177;DHT22;15461;41.652;9.378;2024-03-08T01:43:44;6.80;99.90
28177;DHT22;15461;41.652;9.378;2024-03-08T01:46:12;6.80;99.90
28177;DHT22;15461;41.652;9.378;2024-03-08T01:48:41;6.90;99.90
28177;DHT22;15461;41.652;9.378;2024-03-08T01:51:07;6.90;99.90
28177;DHT22;15461;41.652;9.378;2024-03-08T01:53:34;6.80;99.90
28177;DHT22;15461;41.652;9.378;2024-03-08T01:56:01;6.80;99.90
28177;DHT22;15461;41.652;9.378;2024-03-08T01:58:29;6.90;99.90
28177;DHT22;15461;41.652;9.378;2024-03-08T02:00:56;6.80;99.90
28177;DHT22;15461;41.652;9.378;2024-03-08T02:03:23;6.80;99.90
28177;DHT22;15461;41.652;9.378;2024-03-08T02:05:49;6.80;99.90
28177;DHT22;15461;41.652;9.378;2024-03-08T02:08:18;6.90;99.90
28177;DHT22;15461;41.652;9.378;2024-03-08T02:10:45;6.80;99.90
28177;DHT22;15461;41.652;9.378;2024-03-08T02:13:11;6.80;99.90
28177;DHT22;15461;41.652;9.378;2024-03-08T02:15:59;6.80;99.90
28177;DHT22;15461;41.652;9.378;2024-03-08T02:18:25;6.80;99.90
28177;DHT22;15461;41.652;9.378;2024-03-08T02:20:55;6.80;99.90
28177;DHT22;15461;41.652;9.378;2024-03-08T02:23:21;6.80;99.90
28177;DHT22;15461;41.652;9.378;2024-03-08T02:25:48;6.80;99.90
28177;DHT22;15461;41.652;9.378;2024-03-08T02:28:14;6.80;99.90
28177;DHT22;15461;41.652;9.378;2024-03-08T02:30:40;6.80;99.90
28177;DHT22;15461;41.652;9.378;2024-03-08T02:33:07;6.80;99.90
28177;DHT22;15461;41.652;9.378;2024-03-08T02:35:35;6.80;99.90
28177;DHT22;15461;41.652;9.378;2024-03-08T02:38:01;6.80;99.90
28177;DHT22;15461;41.652;9.378;2024-03-08T02:40:29;6.70;99.90
28177;DHT22;15461;41.652;9.378;2024-03-08T02:42:55;6.70;99.90
28177;DHT22;15461;41.652;9.378;2024-03-08T02:45:21;6.70;99.90
28177;DHT22;15461;41.652;9.378;2024-03-08T02:47:46;6.70;99.90
28177;DHT22;15461;41.652;9.378;2024-03-08T02:50:15;6.70;99.90
28177;DHT22;15461;41.652;9.378;2024-03-08T02:52:42;6.70;99.90
28177;DHT22;15461;41.652;9.378;2024-03-08T02:55:08;6.70;99.90
28177;DHT22;15461;41.652;9.378;2024-03-08T02:57:36;6.80;99.90
28177;DHT22;15461;41.652;9.378;2024-03-08T03:00:02;6.80;99.90
28177;DHT22;15461;41.652;9.378;2024-03-08T03:02:29;6.80;99.90
28177;DHT22;15461;41.652;9.378;2024-03-08T03:04:55;6.90;99.90
28177;DHT22;15461;41.652;9.378;2024-03-08T03:07:21;6.90;99.90
28177;DHT22;15461;41.652;9.378;2024-03-08T03:09:47;7.00;99.90
28177;DHT22;15461;41.652;9.378;2024-03-08T03:12:13;7.00;99.90
28177;DHT22;15461;41.652;9.378;2024-03-08T03:14:39;7.00;99.90
28177;DHT22;15461;41.652;9.378;2024-03-08T03:17:05;7.10;99.90
28177;DHT22;15461;41.652;9.378;2024-03-08T03:19:31;7.10;99.90
28177;DHT22;15461;41.652;9.378;2024-03-08T03:21:57;7.10;99.90
28177;DHT22;15461;41.652;9.378;2024-03-08T03:24:23;7.10;99.90
28177;DHT22;15461;41.652;9.378;2024-03-08T03:26:49;7.20;99.90
28177;DHT22;15461;41.652;9.378;2024-03-08T03:29:15;7.10;99.90
28177;DHT22;15461;41.652;9.378;2024-03-08T03:31:43;7.20;99.90
28177;DHT22;15461;41.652;9.378;2024-03-08T03:34:12;7.20;99.90
28177;DHT22;15461;41.652;9.378;2024-03-08T03:36:38;7.10;99.90
28177;DHT22;15461;41.652;9.378;2024-03-08T03:39:11;7.10;99.90
28177;DHT22;15461;41.652;9.378;2024-03-08T03:41:38;7.20;99.90
28177;DHT22;15461;41.652;9.378;2024-03-08T03:44:05;7.10;99.90
28177;DHT22;15461;41.652;9.378;2024-03-08T03:46:32;7.10;99.90
28177;DHT22;15461;41.652;9.378;2024-03-08T03:48:58;7.10;99.90
28177;DHT22;15461;41.652;9.378;2024-03-08T03:51:24;7.10;99.90
28177;DHT22;15461;41.652;9.378;2024-03-08T03:53:51;7.00;99.90
28177;DHT22;15461;41.652;9.378;2024-03-08T03:56:18;7.00;99.90
28177;DHT22;15461;41.652;9.378;2024-03-08T03:58:44;7.00;99.90
28177;DHT22;15461;41.652;9.378;2024-03-08T04:01:10;6.90;99.90
28177;DHT22;15461;41.652;9.378;2024-03-08T04:03:36;6.80;99.90
28177;DHT22;15461;41.652;9.378;2024-03-08T04:06:04;6.90;99.90
28177;DHT22;15461;41.652;9.378;2024-03-08T04:08:30;6.90;99.90
28177;DHT22;15461;41.652;9.378;2024-03-08T04:10:56;6.90;99.90
28177;DHT22;15461;41.652;9.378;2024-03-08T04:13:23;6.90;99.90
28177;DHT22;15461;41.652;9.378;2024-03-08T04:15:49;6.90;99.90
28177;DHT22;15461;41.652;9.378;2024-03-08T04:18:15;6.90;99.90
28177;DHT22;15461;41.652;9.378;2024-03-08T04:20:40;6.90;99.90
28177;DHT22;15461;41.652;9.378;2024-03-08T04:23:06;7.00;99.90
28177;DHT22;15461;41.652;9.378;2024-03-08T04:25:32;7.00;99.90
28177;DHT22;15461;41.652;9.378;2024-03-08T04:27:58;7.00;99.90
28177;DHT22;15461;41.652;9.378;2024-03-08T04:30:24;7.00;99.90
28177;DHT22;15461;41.652;9.378;2024-03-08T04:32:50;7.00;99.90
28177;DHT22;15461;41.652;9.378;2024-03-08T04:35:16;7.10;99.90
28177;DHT22;15461;41.652;9.378;2024-03-08T04:37:42;7.10;99.90
28177;DHT22;15461;41.652;9.378;2024-03-08T04:40:08;7.10;99.90
28177;DHT22;15461;41.652;9.378;2024-03-08T04:42:35;7.20;99.90
28177;DHT22;15461;41.652;9.378;2024-03-08T04:45:02;7.30;99.90
28177;DHT22;15461;41.652;9.378;2024-03-08T04:47:29;7.40;99.90
28177;DHT22;15461;41.652;9.378;2024-03-08T04:49:56;7.40;99.90
28177;DHT22;15461;41.652;9.378;2024-03-08T04:52:22;7.50;99.90
28177;DHT22;15461;41.652;9.378;2024-03-08T04:54:48;7.60;99.90
28177;DHT22;15461;41.652;9.378;2024-03-08T04:57:14;7.60;99.90
28177;DHT22;15461;41.652;9.378;2024-03-08T04:59:39;7.70;99.90
28177;DHT22;15461;41.652;9.378;2024-03-08T05:02:05;7.70;99.90
28177;DHT22;15461;41.652;9.378;2024-03-08T05:04:32;7.80;99.90
28177;DHT22;15461;41.652;9.378;2024-03-08T05:06:58;7.80;99.90
28177;DHT22;15461;41.652;9.378;2024-03-08T05:09:27;7.80;99.90
28177;DHT22;15461;41.652;9.378;2024-03-08T05:11:54;7.90;99.90
28177;DHT22;15461;41.652;9.378;2024-03-08T05:14:20;7.90;99.90
28177;DHT22;15461;41.652;9.378;2024-03-08T05:16:47;7.90;99.90
28177;DHT22;15461;41.652;9.378;2024-03-08T05:19:19;7.90;99.90
28177;DHT22;15461;41.652;9.378;2024-03-08T05:21:45;8.00;99.90
28177;DHT22;15461;41.652;9.378;2024-03-08T05:24:11;8.00;99.90
28177;DHT22;15461;41.652;9.378;2024-03-08T05:26:39;8.10;99.90
28177;DHT22;15461;41.652;9.378;2024-03-08T05:29:04;8.10;99.90
28177;DHT22;15461;41.652;9.378;2024-03-08T05:31:43;8.20;99.90
28177;DHT22;15461;41.652;9.378;2024-03-08T05:34:11;8.20;99.90
28177;DHT22;15461;41.652;9.378;2024-03-08T05:36:40;8.30;99.90
28177;DHT22;15461;41.652;9.378;2024-03-08T05:39:06;8.30;99.90
28177;DHT22;15461;41.652;9.378;2024-03-08T05:41:32;8.40;99.90
28177;DHT22;15461;41.652;9.378;2024-03-08T05:43:58;8.50;99.90
28177;DHT22;15461;41.652;9.378;2024-03-08T05:46:24;8.60;99.90
28177;DHT22;15461;41.652;9.378;2024-03-08T05:48:51;8.60;99.90
28177;DHT22;15461;41.652;9.378;2024-03-08T05:51:16;8.70;99.90
28177;DHT22;15461;41.652;9.378;2024-03-08T05:53:42;8.70;99.90
28177;DHT22;15461;41.652;9.378;2024-03-08T05:56:08;8.80;99.90
28177;DHT22;15461;41.652;9.378;2024-03-08T05:58:35;8.90;99.90
28177;DHT22;15461;41.652;9.378;2024-03-08T06:01:00;8.90;99.90
28177;DHT22;15461;41.652;9.378;2024-03-08T06:03:26;9.00;99.90
28177;DHT22;15461;41.652;9.378;2024-03-08T06:05:52;9.00;99.90
28177;DHT22;15461;41.652;9.378;2024-03-08T06:08:18;9.10;99.90
28177;DHT22;15461;41.652;9.378;2024-03-08T06:10:44;9.10;99.90
28177;DHT22;15461;41.652;9.378;2024-03-08T06:13:10;9.10;99.90
28177;DHT22;15461;41.652;9.378;2024-03-08T06:15:37;9.20;99.90
28177;DHT22;15461;41.652;9.378;2024-03-08T06:18:03;9.20;99.90
28177;DHT22;15461;41.652;9.378;2024-03-08T06:20:31;9.20;99.90
28177;DHT22;15461;41.652;9.378;2024-03-08T06:22:57;9.30;99.90
28177;DHT22;15461;41.652;9.378;2024-03-08T06:25:23;9.30;99.90
28177;DHT22;15461;41.652;9.378;2024-03-08T06:27:48;9.40;99.90
28177;DHT22;15461;41.652;9.378;2024-03-08T06:30:14;9.40;99.90
28177;DHT22;15461;41.652;9.378;2024-03-08T06:32:41;9.40;99.90
28177;DHT22;15461;41.652;9.378;2024-03-08T06:35:08;9.50;99.90
28177;DHT22;15461;41.652;9.378;2024-03-08T06:37:36;9.50;99.90
28177;DHT22;15461;41.652;9.378;2024-03-08T06:40:02;9.60;99.90
28177;DHT22;15461;41.652;9.378;2024-03-08T06:42:29;9.60;99.90
28177;DHT22;15461;41.652;9.378;2024-03-08T06:44:59;9.70;99.90
28177;DHT22;15461;41.652;9.378;2024-03-08T06:47:30;9.70;99.90
28177;DHT22;15461;41.652;9.378;2024-03-08T06:49:56;9.70;99.90
28177;DHT22;15461;41.652;9.378;2024-03-08T06:52:21;9.80;99.90
28177;DHT22;15461;41.652;9.378;2024-03-08T06:54:48;9.80;99.90
28177;DHT22;15461;41.652;9.378;2024-03-08T06:57:14;9.90;99.90
28177;DHT22;15461;41.652;9.378;2024-03-08T06:59:42;10.00;99.90
28177;DHT22;15461;41.652;9.378;2024-03-08T07:02:08;10.00;99.90
28177;DHT22;15461;41.652;9.378;2024-03-08T07:04:36;10.00;99.90
28177;DHT22;15461;41.652;9.378;2024-03-08T07:07:04;10.00;99.90
28177;DHT22;15461;41.652;9.378;2024-03-08T07:09:30;10.00;99.90
28177;DHT22;15461;41.652;9.378;2024-03-08T07:11:56;10.10;99.90
28177;DHT22;15461;41.652;9.378;2024-03-08T07:14:22;10.10;99.90
28177;DHT22;15461;41.652;9.378;2024-03-08T07:16:48;10.10;99.90
28177;DHT22;15461;41.652;9.378;2024-03-08T07:19:14;10.20;99.90
28177;DHT22;15461;41.652;9.378;2024-03-08T07:21:41;10.30;99.90
28177;DHT22;15461;41.652;9.378;2024-03-08T07:24:07;10.30;99.90
28177;DHT22;15461;41.652;9.378;2024-03-08T07:26:42;10.40;99.90
28177;DHT22;15461;41.652;9.378;2024-03-08T07:29:08;10.50;99.90
28177;DHT22;15461;41.652;9.378;2024-03-08T07:31:34;10.50;99.90
28177;DHT22;15461;41.652;9.378;2024-03-08T07:34:03;10.60;99.90
28177;DHT22;15461;41.652;9.378;2024-03-08T07:36:29;10.60;99.90
28177;DHT22;15461;41.652;9.378;2024-03-08T07:38:54;10.70;99.90
28177;DHT22;15461;41.652;9.378;2024-03-08T07:41:20;10.90;99.90
28177;DHT22;15461;41.652;9.378;2024-03-08T07:43:46;11.00;99.90
28177;DHT22;15461;41.652;9.378;2024-03-08T07:46:12;11.10;99.90
28177;DHT22;15461;41.652;9.378;2024-03-08T07:48:38;11.30;99.90
28177;DHT22;15461;41.652;9.378;2024-03-08T07:51:05;11.30;99.90
28177;DHT22;15461;41.652;9.378;2024-03-08T07:53:31;11.40;99.90
28177;DHT22;15461;41.652;9.378;2024-03-08T07:55:57;11.50;99.90
28177;DHT22;15461;41.652;9.378;2024-03-08T07:58:22;11.60;99.90
28177;DHT22;15461;41.652;9.378;2024-03-08T08:00:49;11.70;99.90
28177;DHT22;15461;41.652;9.378;2024-03-08T08:03:15;11.90;99.90
28177;DHT22;15461;41.652;9.378;2024-03-08T08:05:41;11.90;99.90
28177;DHT22;15461;41.652;9.378;2024-03-08T08:08:08;11.90;99.90
28177;DHT22;15461;41.652;9.378;2024-03-08T08:10:36;12.00;99.90
28177;DHT22;15461;41.652;9.378;2024-03-08T08:13:02;11.90;99.90
28177;DHT22;15461;41.652;9.378;2024-03-08T08:15:30;12.00;99.90
28177;DHT22;15461;41.652;9.378;2024-03-08T08:17:56;12.00;99.90
28177;DHT22;15461;41.652;9.378;2024-03-08T08:20:22;12.00;99.90
28177;DHT22;15461;41.652;9.378;2024-03-08T08:22:48;12.00;99.90
28177;DHT22;15461;41.652;9.378;2024-03-08T08:25:14;12.10;99.90
28177;DHT22;15461;41.652;9.378;2024-03-08T08:27:41;12.10;99.90
28177;DHT22;15461;41.652;9.378;2024-03-08T08:30:08;12.20;99.90
28177;DHT22;15461;41.652;9.378;2024-03-08T08:32:38;12.30;99.90
28177;DHT22;15461;41.652;9.378;2024-03-08T08:35:10;12.40;99.90
28177;DHT22;15461;41.652;9.378;2024-03-08T08:37:40;12.40;99.90
28177;DHT22;15461;41.652;9.378;2024-03-08T08:40:07;12.50;99.90
28177;DHT22;15461;41.652;9.378;2024-03-08T08:42:40;12.50;99.90
28177;DHT22;15461;41.652;9.378;2024-03-08T08:45:07;12.60;99.90
28177;DHT22;15461;41.652;9.378;2024-03-08T08:47:36;12.60;99.90
28177;DHT22;15461;41.652;9.378;2024-03-08T08:50:03;12.70;99.90
28177;DHT22;15461;41.652;9.378;2024-03-08T08:52:31;12.70;99.90
28177;DHT22;15461;41.652;9.378;2024-03-08T08:54:57;12.80;99.90
28177;DHT22;15461;41.652;9.378;2024-03-08T08:57:23;12.90;99.90
28177;DHT22;15461;41.652;9.378;2024-03-08T08:59:49;13.00;99.90
28177;DHT22;15461;41.652;9.378;2024-03-08T09:02:15;13.10;99.90
28177;DHT22;15461;41.652;9.378;2024-03-08T09:04:42;13.20;99.90
28177;DHT22;15461;41.652;9.378;2024-03-08T09:07:09;13.30;99.90
28177;DHT22;15461;41.652;9.378;2024-03-08T09:09:35;13.40;99.90
28177;DHT22;15461;41.652;9.378;2024-03-08T09:12:01;13.50;99.90
28177;DHT22;15461;41.652;9.378;2024-03-08T09:14:27;13.50;99.90
28177;DHT22;15461;41.652;9.378;2024-03-08T09:16:53;13.60;99.90
28177;DHT22;15461;41.652;9.378;2024-03-08T09:19:19;13.70;99.90
28177;DHT22;15461;41.652;9.378;2024-03-08T09:21:51;13.70;99.90
28177;DHT22;15461;41.652;9.378;2024-03-08T09:24:17;13.80;99.90
28177;DHT22;15461;41.652;9.378;2024-03-08T09:26:43;13.90;99.90
28177;DHT22;15461;41.652;9.378;2024-03-08T09:29:09;14.00;99.90
28177;DHT22;15461;41.652;9.378;2024-03-08T09:31:36;14.10;99.90
28177;DHT22;15461;41.652;9.378;2024-03-08T09:34:03;14.20;99.90
28177;DHT22;15461;41.652;9.378;2024-03-08T09:36:29;14.30;99.90
28177;DHT22;15461;41.652;9.378;2024-03-08T09:38:58;14.30;99.90
28177;DHT22;15461;41.652;9.378;2024-03-08T09:41:23;14.30;99.90
28177;DHT22;15461;41.652;9.378;2024-03-08T09:43:49;14.50;99.90
28177;DHT22;15461;41.652;9.378;2024-03-08T09:46:15;14.40;99.90
28177;DHT22;15461;41.652;9.378;2024-03-08T09:48:41;14.30;99.90
28177;DHT22;15461;41.652;9.378;2024-03-08T09:51:07;14.20;99.90
28177;DHT22;15461;41.652;9.378;2024-03-08T09:53:35;14.20;99.90
28177;DHT22;15461;41.652;9.378;2024-03-08T09:56:00;14.20;99.90
28177;DHT22;15461;41.652;9.378;2024-03-08T09:58:29;14.30;99.90
28177;DHT22;15461;41.652;9.378;2024-03-08T10:01:00;14.50;99.90
28177;DHT22;15461;41.652;9.378;2024-03-08T10:03:32;14.60;99.90
28177;DHT22;15461;41.652;9.378;2024-03-08T10:05:59;14.60;99.90
28177;DHT22;15461;41.652;9.378;2024-03-08T10:08:28;14.70;99.90
28177;DHT22;15461;41.652;9.378;2024-03-08T10:10:57;14.70;99.90
28177;DHT22;15461;41.652;9.378;2024-03-08T10:13:26;14.60;99.90
28177;DHT22;15461;41.652;9.378;2024-03-08T10:15:53;14.60;99.90
28177;DHT22;15461;41.652;9.378;2024-03-08T10:18:20;14.50;99.90
28177;DHT22;15461;41.652;9.378;2024-03-08T10:20:59;14.50;99.90
28177;DHT22;15461;41.652;9.378;2024-03-08T10:23:30;14.40;99.90
28177;DHT22;15461;41.652;9.378;2024-03-08T10:25:56;14.40;99.90
28177;DHT22;15461;41.652;9.378;2024-03-08T10:28:24;14.30;99.90
28177;DHT22;15461;41.652;9.378;2024-03-08T10:30:50;14.40;99.90
28177;DHT22;15461;41.652;9.378;2024-03-08T10:33:16;14.30;99.90
28177;DHT22;15461;41.652;9.378;2024-03-08T10:35:42;14.30;99.90
28177;DHT22;15461;41.652;9.378;2024-03-08T10:38:10;14.30;99.90
28177;DHT22;15461;41.652;9.378;2024-03-08T10:40:40;14.30;99.90
28177;DHT22;15461;41.652;9.378;2024-03-08T10:43:11;14.30;99.90
28177;DHT22;15461;41.652;9.378;2024-03-08T10:45:41;14.40;99.90
28177;DHT22;15461;41.652;9.378;2024-03-08T10:48:28;14.40;99.90
28177;DHT22;15461;41.652;9.378;2024-03-08T10:50:59;14.40;99.90
28177;DHT22;15461;41.652;9.378;2024-03-08T10:53:28;14.50;99.90
28177;DHT22;15461;41.652;9.378;2024-03-08T10:55:58;14.50;99.90
28177;DHT22;15461;41.652;9.378;2024-03-08T10:58:25;14.50;99.90
28177;DHT22;15461;41.652;9.378;2024-03-08T11:00:55;14.50;99.90
28177;DHT22;15461;41.652;9.378;2024-03-08T11:06:17;14.50;99.90
28177;DHT22;15461;41.652;9.378;2024-03-08T11:08:45;14.50;99.90
28177;DHT22;15461;41.652;9.378;2024-03-08T11:11:40;14.40;99.90
28177;DHT22;15461;41.652;9.378;2024-03-08T11:14:43;14.40;99.90
28177;DHT22;15461;41.652;9.378;2024-03-08T11:17:09;14.40;99.90
28177;DHT22;15461;41.652;9.378;2024-03-08T11:19:35;14.30;99.90
28177;DHT22;15461;41.652;9.378;2024-03-08T11:22:02;14.30;99.90
28177;DHT22;15461;41.652;9.378;2024-03-08T11:24:36;14.40;99.90
28177;DHT22;15461;41.652;9.378;2024-03-08T11:27:03;14.40;99.90
28177;DHT22;15461;41.652;9.378;2024-03-08T11:34:35;14.20;99.90
28177;DHT22;15461;41.652;9.378;2024-03-08T11:37:04;14.10;99.90
28177;DHT22;15461;41.652;9.378;2024-03-08T11:39:30;14.00;99.90
28177;DHT22;15461;41.652;9.378;2024-03-08T11:41:57;13.90;99.90
28177;DHT22;15461;41.652;9.378;2024-03-08T11:44:27;13.80;99.90
28177;DHT22;15461;41.652;9.378;2024-03-08T11:46:53;13.70;99.90
28177;DHT22;15461;41.652;9.378;2024-03-08T11:49:19;13.80;99.90
28177;DHT22;15461;41.652;9.378;2024-03-08T11:51:46;13.80;99.90
28177;DHT22;15461;41.652;9.378;2024-03-08T11:54:13;14.00;99.90
28177;DHT22;15461;41.652;9.378;2024-03-08T11:56:39;14.10;99.90
28177;DHT22;15461;41.652;9.378;2024-03-08T11:59:05;14.30;99.90
28177;DHT22;15461;41.652;9.378;2024-03-08T12:01:38;14.50;99.90
28177;DHT22;15461;41.652;9.378;2024-03-08T12:04:04;14.60;99.90
28177;DHT22;15461;41.652;9.378;2024-03-08T12:06:41;14.70;99.90
28177;DHT22;15461;41.652;9.378;2024-03-08T12:09:13;14.70;99.90
28177;DHT22;15461;41.652;9.378;2024-03-08T12:11:40;14.90;99.90
28177;DHT22;15461;41.652;9.378;2024-03-08T12:14:06;14.90;99.90
28177;DHT22;15461;41.652;9.378;2024-03-08T12:16:32;15.00;99.90
28177;DHT22;15461;41.652;9.378;2024-03-08T12:18:59;15.10;99.90
28177;DHT22;15461;41.652;9.378;2024-03-08T12:21:26;15.20;99.90
28177;DHT22;15461;41.652;9.378;2024-03-08T12:24:13;15.20;99.90
28177;DHT22;15461;41.652;9.378;2024-03-08T12:26:42;15.20;99.90
28177;DHT22;15461;41.652;9.378;2024-03-08T12:31:46;15.20;99.90
28177;DHT22;15461;41.652;9.378;2024-03-08T12:34:12;15.30;99.90
28177;DHT22;15461;41.652;9.378;2024-03-08T12:36:49;15.30;99.90
28177;DHT22;15461;41.652;9.378;2024-03-08T12:39:22;15.20;99.90
28177;DHT22;15461;41.652;9.378;2024-03-08T12:41:48;15.10;99.90
28177;DHT22;15461;41.652;9.378;2024-03-08T12:44:18;15.00;99.90
28177;DHT22;15461;41.652;9.378;2024-03-08T12:46:47;14.90;99.90
28177;DHT22;15461;41.652;9.378;2024-03-08T12:49:14;14.80;99.90
28177;DHT22;15461;41.652;9.378;2024-03-08T12:51:44;14.60;99.90
28177;DHT22;15461;41.652;9.378;2024-03-08T12:54:10;14.50;99.90
28177;DHT22;15461;41.652;9.378;2024-03-08T12:56:36;14.30;99.90
28177;DHT22;15461;41.652;9.378;2024-03-08T12:59:04;14.30;99.90
28177;DHT22;15461;41.652;9.378;2024-03-08T13:01:31;14.20;99.90
28177;DHT22;15461;41.652;9.378;2024-03-08T13:04:00;14.10;99.90
28177;DHT22;15461;41.652;9.378;2024-03-08T13:06:28;14.10;99.90
28177;DHT22;15461;41.652;9.378;2024-03-08T13:08:55;14.00;99.90
28177;DHT22;15461;41.652;9.378;2024-03-08T13:11:21;13.90;99.90
28177;DHT22;15461;41.652;9.378;2024-03-08T13:13:49;13.70;99.90
28177;DHT22;15461;41.652;9.378;2024-03-08T13:16:15;13.60;99.90
28177;DHT22;15461;41.652;9.378;2024-03-08T13:18:43;13.50;99.90
28177;DHT22;15461;41.652;9.378;2024-03-08T13:21:09;13.30;99.90
28177;DHT22;15461;41.652;9.378;2024-03-08T13:23:37;13.10;99.90
28177;DHT22;15461;41.652;9.378;2024-03-08T13:26:09;12.90;99.90
28177;DHT22;15461;41.652;9.378;2024-03-08T13:28:45;12.80;99.90
28177;DHT22;15461;41.652;9.378;2024-03-08T13:31:10;12.70;99.90
28177;DHT22;15461;41.652;9.378;2024-03-08T13:33:37;12.60;99.90
28177;DHT22;15461;41.652;9.378;2024-03-08T13:36:05;12.60;99.90
28177;DHT22;15461;41.652;9.378;2024-03-08T13:38:34;12.60;99.90
28177;DHT22;15461;41.652;9.378;2024-03-08T13:41:02;12.60;99.90
28177;DHT22;15461;41.652;9.378;2024-03-08T13:43:28;12.60;99.90
28177;DHT22;15461;41.652;9.378;2024-03-08T13:45:55;12.50;99.90
28177;DHT22;15461;41.652;9.378;2024-03-08T13:48:21;12.50;99.90
28177;DHT22;15461;41.652;9.378;2024-03-08T13:50:48;12.50;99.90
28177;DHT22;15461;41.652;9.378;2024-03-08T13:53:15;12.50;99.90
28177;DHT22;15461;41.652;9.378;2024-03-08T13:55:41;12.40;99.90
28177;DHT22;15461;41.652;9.378;2024-03-08T13:58:07;12.40;99.90
28177;DHT22;15461;41.652;9.378;2024-03-08T14:00:38;12.30;99.90
28177;DHT22;15461;41.652;9.378;2024-03-08T14:03:04;12.30;99.90
28177;DHT22;15461;41.652;9.378;2024-03-08T14:05:31;12.30;99.90
28177;DHT22;15461;41.652;9.378;2024-03-08T14:08:01;12.30;99.90
28177;DHT22;15461;41.652;9.378;2024-03-08T14:10:29;12.40;99.90
28177;DHT22;15461;41.652;9.378;2024-03-08T14:12:59;12.30;99.90
28177;DHT22;15461;41.652;9.378;2024-03-08T14:15:25;12.20;99.90
28177;DHT22;15461;41.652;9.378;2024-03-08T14:17:55;12.30;99.90
28177;DHT22;15461;41.652;9.378;2024-03-08T14:20:21;12.20;99.90
28177;DHT22;15461;41.652;9.378;2024-03-08T14:22:54;12.20;99.90
28177;DHT22;15461;41.652;9.378;2024-03-08T14:25:23;12.20;99.90
28177;DHT22;15461;41.652;9.378;2024-03-08T14:27:50;12.20;99.90
28177;DHT22;15461;41.652;9.378;2024-03-08T14:30:20;12.20;99.90
28177;DHT22;15461;41.652;9.378;2024-03-08T14:33:06;12.20;99.90
28177;DHT22;15461;41.652;9.378;2024-03-08T14:35:38;12.20;99.90
28177;DHT22;15461;41.652;9.378;2024-03-08T14:38:05;12.20;99.90
28177;DHT22;15461;41.652;9.378;2024-03-08T14:40:34;12.20;99.90
28177;DHT22;15461;41.652;9.378;2024-03-08T14:43:00;12.20;99.90
28177;DHT22;15461;41.652;9.378;2024-03-08T14:45:26;12.20;99.90
28177;DHT22;15461;41.652;9.378;2024-03-08T14:47:52;12.20;99.90
28177;DHT22;15461;41.652;9.378;2024-03-08T14:50:22;12.20;99.90
28177;DHT22;15461;41.652;9.378;2024-03-08T14:52:49;12.10;99.90
28177;DHT22;15461;41.652;9.378;2024-03-08T14:55:20;12.20;99.90
28177;DHT22;15461;41.652;9.378;2024-03-08T14:57:50;12.20;99.90
28177;DHT22;15461;41.652;9.378;2024-03-08T15:00:18;12.20;99.90
28177;DHT22;15461;41.652;9.378;2024-03-08T15:02:59;12.20;99.90
28177;DHT22;15461;41.652;9.378;2024-03-08T15:05:25;12.30;99.90
28177;DHT22;15461;41.652;9.378;2024-03-08T15:07:58;12.30;99.90
28177;DHT22;15461;41.652;9.378;2024-03-08T15:10:26;12.30;99.90
28177;DHT22;15461;41.652;9.378;2024-03-08T15:12:54;12.20;99.90
28177;DHT22;15461;41.652;9.378;2024-03-08T15:15:21;12.20;99.90
28177;DHT22;15461;41.652;9.378;2024-03-08T15:17:50;12.20;99.90
28177;DHT22;15461;41.652;9.378;2024-03-08T15:20:17;12.20;99.90
28177;DHT22;15461;41.652;9.378;2024-03-08T15:22:49;12.20;99.90
28177;DHT22;15461;41.652;9.378;2024-03-08T15:25:16;12.20;99.90
28177;DHT22;15461;41.652;9.378;2024-03-08T15:27:54;12.20;99.90
28177;DHT22;15461;41.652;9.378;2024-03-08T15:30:21;12.20;99.90
28177;DHT22;15461;41.652;9.378;2024-03-08T15:32:56;12.20;99.90
28177;DHT22;15461;41.652;9.378;2024-03-08T15:35:23;12.20;99.90
28177;DHT22;15461;41.652;9.378;2024-03-08T15:37:51;12.20;99.90
28177;DHT22;15461;41.652;9.378;2024-03-08T15:40:18;12.30;99.90
28177;DHT22;15461;41.652;9.378;2024-03-08T15:42:55;12.30;99.90
28177;DHT22;15461;41.652;9.378;2024-03-08T15:45:22;12.30;99.90
28177;DHT22;15461;41.652;9.378;2024-03-08T15:47:55;12.30;99.90
28177;DHT22;15461;41.652;9.378;2024-03-08T15:50:21;12.30;99.90